Trowbridge, Illinois
Current Conditions -  °F | °C
As of 1:53 AM on Wednesday 22 Oct 2014 (Local Time) from KMTO Reporting Station
Clear Clear  
Wind Chill: 40°   Ceiling: Unl
Heat Index: 40°   Visibility: 10mi
Dew Point: 37°   Wind: 3mph
Humidity: 89%   Direction: 10°N
Pressure: 30.23"   Gusts: NA
Location:  39.3144°N, 88.4504°W
Report Text: KMTO 220653Z AUTO 01003KT 10SM CLR 04/03 A3023 RMK AO2 SLP239 T00440028
Loading
Personal Weather Stations






























Interactive Weather Map
Tropical Storm Tracking
New forecast layout! Learn more

10-Day Weather Forecast

Advertisements
Track Severe Weather on mobile